Time;durP1;ratioP1;P1;durP2;ratioP2;P2;SDS_P1;SDS_P2;PMS_P1;PMS_P2;Temp;Humidity;BMP_temperature;BMP_pressure;BME280_temperature;BME280_humidity;BME280_pressure;Samples;Min_cycle;Max_cycle;Signal;HPM_P1;HPM_P2
2023/03/03 00:01:47;;;;;;;6.35;1.98;;;;;;;;;;4984843;28;20049;-52
2023/03/03 00:04:15;;;;;;;8.98;1.75;;;;;;;;;;4983613;28;20513;-52
2023/03/03 00:06:44;;;;;;;9.77;2.63;;;;;;;;;;4974048;28;20049;-50
2023/03/03 00:09:12;;;;;;;8.32;2.75;;;;;;;;;;4991128;28;20125;-54
2023/03/03 00:11:39;;;;;;;11.57;1.93;;;;;;;;;;4984046;28;20562;-48
2023/03/03 00:14:17;;;;;;;6.45;2.20;;;;;;;;;;4971145;28;20991;-48
2023/03/03 00:16:48;;;;;;;8.35;2.67;;;;;;;;;;4983189;28;20419;-53
2023/03/03 00:19:17;;;;;;;9.27;2.60;;;;;;;;;;4978886;28;20367;-49
2023/03/03 00:21:45;;;;;;;8.07;2.60;;;;;;;;;;4980922;28;20384;-51
2023/03/03 00:24:20;;;;;;;8.17;2.80;;;;;;;;;;4970746;28;20061;-50
2023/03/03 00:26:48;;;;;;;9.35;2.83;;;;;;;;;;4974426;28;20121;-51
2023/03/03 00:29:27;;;;;;;11.45;2.88;;;;;;;;;;4655332;28;10000473;-51
2023/03/03 00:32:00;;;;;;;8.40;3.00;;;;;;;;;;4974539;28;20343;-51
2023/03/03 00:34:29;;;;;;;8.23;2.88;;;;;;;;;;4986198;28;20053;-51
2023/03/03 00:36:57;;;;;;;10.10;2.67;;;;;;;;;;4974699;28;20565;-52
2023/03/03 00:39:28;;;;;;;9.20;3.67;;;;;;;;;;4990273;28;20586;-48
2023/03/03 00:41:57;;;;;;;8.43;2.72;;;;;;;;;;4986117;28;20455;-49
2023/03/03 00:44:39;;;;;;;8.68;2.85;;;;;;;;;;4972773;28;20158;-50
2023/03/03 00:47:25;;;;;;;9.68;2.83;;;;;;;;;;4994060;28;20095;-50
2023/03/03 00:50:16;;;;;;;12.20;2.93;;;;;;;;;;4987132;28;20065;-50
2023/03/03 00:52:45;;;;;;;9.25;2.92;;;;;;;;;;4975281;28;20050;-52
2023/03/03 00:55:14;;;;;;;10.65;2.97;;;;;;;;;;4986231;28;20104;-52
2023/03/03 00:57:42;;;;;;;8.02;2.83;;;;;;;;;;4983993;28;20136;-48
2023/03/03 01:00:10;;;;;;;8.20;3.10;;;;;;;;;;4996216;28;20045;-51
2023/03/03 01:02:38;;;;;;;8.73;2.30;;;;;;;;;;4973841;28;20045;-51
2023/03/03 01:05:12;;;;;;;7.13;1.75;;;;;;;;;;4984708;28;20052;-51
2023/03/03 01:07:42;;;;;;;6.55;2.03;;;;;;;;;;4987369;28;20034;-48
2023/03/03 01:10:10;;;;;;;9.35;2.40;;;;;;;;;;4961354;28;20397;-47
2023/03/03 01:12:38;;;;;;;6.40;2.10;;;;;;;;;;4974178;28;20056;-47
2023/03/03 01:15:07;;;;;;;6.57;1.80;;;;;;;;;;4956650;28;20045;-52
2023/03/03 01:17:35;;;;;;;6.60;1.73;;;;;;;;;;4980998;28;20558;-47
2023/03/03 01:20:02;;;;;;;9.30;2.15;;;;;;;;;;4969580;28;21343;-47
2023/03/03 01:22:31;;;;;;;7.55;2.00;;;;;;;;;;4984264;28;20154;-46
2023/03/03 01:24:59;;;;;;;6.55;1.60;;;;;;;;;;4984673;28;20041;-49
2023/03/03 01:27:27;;;;;;;6.07;1.67;;;;;;;;;;5003691;28;20510;-47
2023/03/03 01:29:56;;;;;;;8.07;1.98;;;;;;;;;;4947074;28;20048;-50
2023/03/03 01:32:23;;;;;;;5.32;1.50;;;;;;;;;;4988986;28;20140;-50
2023/03/03 01:34:51;;;;;;;5.30;1.20;;;;;;;;;;4993527;28;20044;-50
2023/03/03 01:37:19;;;;;;;6.57;1.52;;;;;;;;;;5003860;28;20057;-48
2023/03/03 01:39:49;;;;;;;7.60;1.60;;;;;;;;;;4985754;28;20120;-48
2023/03/03 01:42:17;;;;;;;8.10;1.65;;;;;;;;;;4998148;28;20072;-51
2023/03/03 01:44:45;;;;;;;4.93;1.30;;;;;;;;;;4985193;28;20041;-50
2023/03/03 01:47:17;;;;;;;6.60;1.88;;;;;;;;;;4988468;28;20116;-48
2023/03/03 01:49:48;;;;;;;6.30;1.83;;;;;;;;;;4981014;28;20081;-48
2023/03/03 01:52:21;;;;;;;6.23;1.23;;;;;;;;;;4979454;28;20064;-48
2023/03/03 01:54:52;;;;;;;7.00;1.50;;;;;;;;;;4996429;28;20478;-53
2023/03/03 01:57:23;;;;;;;5.68;1.60;;;;;;;;;;4977357;28;20065;-47
2023/03/03 01:59:52;;;;;;;4.95;1.20;;;;;;;;;;5000142;28;20038;-48
2023/03/03 02:02:19;;;;;;;4.88;1.42;;;;;;;;;;4987960;28;20068;-47
2023/03/03 02:04:47;;;;;;;5.23;1.40;;;;;;;;;;5003584;28;20048;-51
2023/03/03 02:07:16;;;;;;;6.60;1.40;;;;;;;;;;4967410;28;20481;-49
2023/03/03 02:09:48;;;;;;;5.15;0.98;;;;;;;;;;5001357;28;20121;-49
2023/03/03 02:12:18;;;;;;;5.78;1.30;;;;;;;;;;4983851;28;20037;-49
2023/03/03 02:14:46;;;;;;;8.32;1.92;;;;;;;;;;5002554;28;20049;-49
2023/03/03 02:17:13;;;;;;;7.80;1.77;;;;;;;;;;4982174;28;20487;-49
2023/03/03 02:19:48;;;;;;;5.95;1.55;;;;;;;;;;4998476;28;20063;-47
2023/03/03 02:22:23;;;;;;;7.22;2.10;;;;;;;;;;4991311;28;20076;-48
2023/03/03 02:24:52;;;;;;;8.25;2.40;;;;;;;;;;4982951;28;20077;-48
2023/03/03 02:27:21;;;;;;;7.60;1.83;;;;;;;;;;4987741;28;20502;-51
2023/03/03 02:29:51;;;;;;;7.53;2.43;;;;;;;;;;4981970;28;20246;-51
2023/03/03 02:32:18;;;;;;;9.02;2.28;;;;;;;;;;4986525;28;20042;-50
2023/03/03 02:34:47;;;;;;;6.88;2.15;;;;;;;;;;4983500;28;20041;-49
2023/03/03 02:37:15;;;;;;;9.10;2.65;;;;;;;;;;4986742;28;20364;-47
2023/03/03 02:39:43;;;;;;;9.77;2.72;;;;;;;;;;4967816;28;20496;-48
2023/03/03 02:42:15;;;;;;;9.13;2.97;;;;;;;;;;4996208;28;20036;-52
2023/03/03 02:44:44;;;;;;;9.30;3.13;;;;;;;;;;4967017;28;20038;-47
2023/03/03 02:47:13;;;;;;;8.13;3.10;;;;;;;;;;4984539;28;20057;-52
2023/03/03 02:49:41;;;;;;;10.65;3.58;;;;;;;;;;4999012;28;20065;-48
2023/03/03 02:52:10;;;;;;;12.10;4.47;;;;;;;;;;4989290;28;20120;-51
2023/03/03 02:54:38;;;;;;;11.90;3.77;;;;;;;;;;4995682;28;20100;-47
2023/03/03 02:57:10;;;;;;;10.45;3.72;;;;;;;;;;4996596;28;20045;-49
2023/03/03 02:59:39;;;;;;;12.52;4.75;;;;;;;;;;4990759;28;20037;-51
2023/03/03 03:02:08;;;;;;;10.43;3.63;;;;;;;;;;4981903;28;20120;-49
2023/03/03 03:04:36;;;;;;;9.30;3.60;;;;;;;;;;4997375;28;20041;-47
2023/03/03 03:07:04;;;;;;;10.43;3.60;;;;;;;;;;4978864;28;20121;-48
2023/03/03 03:09:31;;;;;;;10.40;3.72;;;;;;;;;;4990189;28;20065;-50
2023/03/03 03:12:01;;;;;;;11.43;3.90;;;;;;;;;;4982481;28;20120;-48
2023/03/03 03:14:29;;;;;;;13.48;3.80;;;;;;;;;;4989933;28;20038;-46
2023/03/03 03:16:56;;;;;;;10.77;4.00;;;;;;;;;;4987876;28;20128;-49
2023/03/03 03:19:25;;;;;;;11.80;4.27;;;;;;;;;;4951094;28;20905;-47
2023/03/03 03:21:53;;;;;;;11.57;4.30;;;;;;;;;;4992401;28;20069;-47
2023/03/03 03:24:21;;;;;;;12.73;3.75;;;;;;;;;;4986299;28;20049;-50
2023/03/03 03:26:48;;;;;;;9.80;4.00;;;;;;;;;;4995863;28;20037;-47
2023/03/03 03:29:16;;;;;;;9.85;3.85;;;;;;;;;;4985393;28;22148;-48
2023/03/03 03:31:44;;;;;;;9.90;4.13;;;;;;;;;;4994118;28;20108;-47
2023/03/03 03:34:11;;;;;;;9.35;3.83;;;;;;;;;;4982495;28;20038;-48
2023/03/03 03:36:41;;;;;;;10.68;3.95;;;;;;;;;;4951037;28;20042;-50
2023/03/03 03:39:13;;;;;;;10.95;3.97;;;;;;;;;;4981441;28;20038;-48
2023/03/03 03:41:41;;;;;;;16.38;4.15;;;;;;;;;;4976072;28;20101;-49
2023/03/03 03:44:08;;;;;;;11.23;4.77;;;;;;;;;;4991108;28;20038;-49
2023/03/03 03:46:36;;;;;;;11.55;4.32;;;;;;;;;;4991141;28;20129;-50
2023/03/03 03:49:03;;;;;;;10.35;3.90;;;;;;;;;;4982626;28;20061;-49
2023/03/03 03:51:32;;;;;;;10.82;3.95;;;;;;;;;;4982382;28;20883;-53
2023/03/03 03:54:01;;;;;;;11.65;3.90;;;;;;;;;;4999996;28;20103;-49
2023/03/03 03:56:29;;;;;;;9.70;3.43;;;;;;;;;;4993983;28;20084;-50
2023/03/03 03:58:57;;;;;;;9.80;3.92;;;;;;;;;;4995045;28;20111;-47
2023/03/03 04:01:25;;;;;;;9.02;3.80;;;;;;;;;;4959851;28;20042;-47
2023/03/03 04:03:53;;;;;;;10.25;3.47;;;;;;;;;;4981840;28;20065;-47
2023/03/03 04:06:21;;;;;;;9.77;3.17;;;;;;;;;;4978225;28;20056;-53
2023/03/03 04:08:48;;;;;;;10.87;3.77;;;;;;;;;;4973398;28;20624;-47
2023/03/03 04:11:17;;;;;;;9.48;3.20;;;;;;;;;;5003454;28;20065;-49
2023/03/03 04:13:46;;;;;;;9.88;3.17;;;;;;;;;;4970971;28;21072;-51
2023/03/03 04:16:15;;;;;;;9.15;2.95;;;;;;;;;;4987787;28;20037;-49
2023/03/03 04:18:43;;;;;;;9.45;2.30;;;;;;;;;;4974022;28;20113;-51
2023/03/03 04:21:14;;;;;;;10.57;3.20;;;;;;;;;;4956686;28;20036;-48
2023/03/03 04:23:41;;;;;;;9.82;3.42;;;;;;;;;;5001631;28;20065;-49
2023/03/03 04:26:10;;;;;;;8.32;2.65;;;;;;;;;;4982833;28;20034;-51
2023/03/03 04:28:39;;;;;;;9.80;2.53;;;;;;;;;;4988331;28;20046;-47
2023/03/03 04:31:06;;;;;;;11.98;3.25;;;;;;;;;;4973905;28;20272;-48
2023/03/03 04:33:35;;;;;;;10.40;2.40;;;;;;;;;;4992360;28;20038;-48
2023/03/03 04:36:02;;;;;;;10.07;2.70;;;;;;;;;;4981766;28;20152;-48
2023/03/03 04:38:30;;;;;;;9.10;2.75;;;;;;;;;;4997375;28;20073;-48
2023/03/03 04:40:58;;;;;;;9.32;2.70;;;;;;;;;;4979934;28;20115;-49
2023/03/03 04:43:25;;;;;;;7.75;2.55;;;;;;;;;;4998991;28;20517;-48
2023/03/03 04:45:54;;;;;;;9.17;2.50;;;;;;;;;;4989856;28;21278;-49
2023/03/03 04:48:22;;;;;;;8.65;2.58;;;;;;;;;;4994032;28;20129;-49
2023/03/03 04:50:50;;;;;;;7.47;2.25;;;;;;;;;;4995548;28;20639;-51
2023/03/03 04:53:17;;;;;;;11.80;2.47;;;;;;;;;;4983710;28;20115;-50
2023/03/03 04:55:45;;;;;;;8.55;2.05;;;;;;;;;;4980697;28;20137;-50
2023/03/03 04:58:13;;;;;;;6.40;1.90;;;;;;;;;;4964500;28;21608;-51
2023/03/03 05:00:40;;;;;;;5.95;1.95;;;;;;;;;;4996143;28;20081;-47
2023/03/03 05:03:11;;;;;;;6.85;1.85;;;;;;;;;;4978865;28;20252;-49
2023/03/03 05:05:40;;;;;;;6.53;1.48;;;;;;;;;;5009933;28;20529;-51
2023/03/03 05:08:07;;;;;;;9.63;1.85;;;;;;;;;;4978720;28;20053;-49
2023/03/03 05:10:35;;;;;;;6.90;1.83;;;;;;;;;;4992441;28;20092;-49
2023/03/03 05:13:03;;;;;;;5.90;2.00;;;;;;;;;;4981181;28;20030;-52
2023/03/03 05:15:31;;;;;;;6.43;1.80;;;;;;;;;;4997800;28;20077;-49
2023/03/03 05:17:59;;;;;;;6.50;1.33;;;;;;;;;;4980649;28;20065;-52
2023/03/03 05:20:31;;;;;;;6.53;1.60;;;;;;;;;;4983789;28;20041;-53
2023/03/03 05:23:00;;;;;;;7.47;1.67;;;;;;;;;;5005496;28;20130;-48
2023/03/03 05:25:28;;;;;;;5.28;1.50;;;;;;;;;;4973523;28;20111;-48
2023/03/03 05:27:56;;;;;;;7.50;1.70;;;;;;;;;;4986929;28;20108;-54
2023/03/03 05:30:23;;;;;;;7.90;1.95;;;;;;;;;;4983470;28;20124;-51
2023/03/03 05:32:51;;;;;;;7.45;1.90;;;;;;;;;;4982902;28;20042;-48
2023/03/03 05:35:20;;;;;;;8.97;2.27;;;;;;;;;;4990059;28;20045;-51
2023/03/03 05:37:49;;;;;;;7.05;2.03;;;;;;;;;;4986160;28;20545;-47
2023/03/03 05:40:17;;;;;;;8.85;1.70;;;;;;;;;;4979124;28;20044;-49
2023/03/03 05:42:44;;;;;;;7.85;1.95;;;;;;;;;;5007062;28;20080;-50
2023/03/03 05:45:12;;;;;;;7.82;2.10;;;;;;;;;;4981131;28;20279;-48
2023/03/03 05:47:40;;;;;;;6.20;2.10;;;;;;;;;;4989806;28;20099;-49
2023/03/03 05:50:08;;;;;;;8.45;2.00;;;;;;;;;;5006008;28;20121;-50
2023/03/03 05:52:36;;;;;;;5.97;2.17;;;;;;;;;;4996698;28;20092;-49
2023/03/03 05:55:05;;;;;;;7.30;2.22;;;;;;;;;;4977260;28;20120;-51
2023/03/03 05:57:34;;;;;;;7.25;2.22;;;;;;;;;;4997360;28;20099;-54
2023/03/03 06:00:02;;;;;;;7.03;2.27;;;;;;;;;;4990248;28;20033;-52
2023/03/03 06:02:32;;;;;;;9.27;2.20;;;;;;;;;;4995673;28;20068;-51
2023/03/03 06:05:00;;;;;;;9.52;2.63;;;;;;;;;;4997485;28;20116;-52
2023/03/03 06:07:27;;;;;;;8.30;2.08;;;;;;;;;;4979514;28;20132;-50
2023/03/03 06:09:55;;;;;;;6.60;1.95;;;;;;;;;;4994128;28;20125;-50
2023/03/03 06:12:24;;;;;;;6.70;2.20;;;;;;;;;;4979454;28;20050;-47
2023/03/03 06:14:52;;;;;;;7.57;2.35;;;;;;;;;;4988899;28;20284;-47
2023/03/03 06:17:19;;;;;;;6.57;2.13;;;;;;;;;;4981918;28;20856;-48
2023/03/03 06:19:47;;;;;;;9.00;2.35;;;;;;;;;;5000352;28;20527;-53
2023/03/03 06:22:15;;;;;;;7.03;2.00;;;;;;;;;;4981551;28;20523;-51
2023/03/03 06:24:42;;;;;;;8.27;2.40;;;;;;;;;;4983974;28;20120;-51
2023/03/03 06:27:10;;;;;;;6.20;1.80;;;;;;;;;;4974074;28;20880;-48
2023/03/03 06:29:39;;;;;;;7.32;1.92;;;;;;;;;;4987628;28;20038;-49
2023/03/03 06:32:07;;;;;;;7.18;1.67;;;;;;;;;;4971332;28;20129;-51
2023/03/03 06:34:35;;;;;;;8.68;2.17;;;;;;;;;;4997888;28;20096;-50
2023/03/03 06:37:02;;;;;;;8.83;2.10;;;;;;;;;;4974856;28;20447;-50
2023/03/03 06:39:30;;;;;;;8.57;1.98;;;;;;;;;;4989065;28;20119;-47
2023/03/03 06:41:58;;;;;;;6.78;1.95;;;;;;;;;;4987905;28;20074;-49
2023/03/03 06:44:26;;;;;;;6.70;1.98;;;;;;;;;;4981958;28;20048;-48
2023/03/03 06:46:57;;;;;;;9.43;2.20;;;;;;;;;;4993166;28;20472;-55
2023/03/03 06:49:25;;;;;;;6.93;1.90;;;;;;;;;;4995960;28;20095;-51
2023/03/03 06:51:53;;;;;;;9.55;2.40;;;;;;;;;;4992871;28;20722;-48
2023/03/03 06:54:25;;;;;;;10.52;2.88;;;;;;;;;;5000016;28;20064;-49
2023/03/03 06:56:58;;;;;;;11.25;2.65;;;;;;;;;;4992162;28;20046;-53
2023/03/03 06:59:26;;;;;;;13.80;2.65;;;;;;;;;;4985203;28;20073;-51
2023/03/03 07:01:54;;;;;;;6.87;2.10;;;;;;;;;;4997663;28;20072;-52
2023/03/03 07:04:29;;;;;;;7.40;2.22;;;;;;;;;;4988037;28;20651;-50
2023/03/03 07:06:58;;;;;;;8.45;1.70;;;;;;;;;;4984556;28;20063;-48
2023/03/03 07:09:27;;;;;;;6.72;1.75;;;;;;;;;;4979323;28;20107;-48
2023/03/03 07:11:56;;;;;;;6.68;1.65;;;;;;;;;;4977710;28;20116;-48
2023/03/03 07:14:24;;;;;;;5.87;1.50;;;;;;;;;;4989046;28;20109;-50
2023/03/03 07:16:56;;;;;;;5.57;1.70;;;;;;;;;;4983498;28;20488;-48
2023/03/03 07:19:31;;;;;;;6.35;1.30;;;;;;;;;;4987867;28;20073;-52
2023/03/03 07:22:01;;;;;;;6.60;1.73;;;;;;;;;;4977467;28;20073;-47
2023/03/03 07:24:29;;;;;;;5.88;1.50;;;;;;;;;;4991649;28;20042;-48
2023/03/03 07:27:01;;;;;;;6.20;1.80;;;;;;;;;;4961989;28;20593;-49
2023/03/03 07:29:29;;;;;;;7.10;1.77;;;;;;;;;;4973911;28;20046;-48
2023/03/03 07:31:59;;;;;;;6.03;1.77;;;;;;;;;;4982687;28;20155;-53
2023/03/03 07:34:32;;;;;;;5.65;1.65;;;;;;;;;;4988774;28;20050;-50
2023/03/03 07:37:03;;;;;;;5.97;1.40;;;;;;;;;;4977127;28;20038;-51
2023/03/03 07:39:33;;;;;;;7.97;1.57;;;;;;;;;;4989339;28;20033;-50
2023/03/03 07:42:28;;;;;;;5.28;1.60;;;;;;;;;;4979703;28;20048;-52
2023/03/03 07:44:57;;;;;;;6.95;1.73;;;;;;;;;;4937012;28;20104;-49
2023/03/03 07:47:25;;;;;;;9.85;1.50;;;;;;;;;;4976743;28;20085;-47
2023/03/03 07:49:56;;;;;;;5.93;1.48;;;;;;;;;;4993802;28;20066;-47
2023/03/03 07:52:25;;;;;;;5.33;1.53;;;;;;;;;;4985790;28;20128;-49
2023/03/03 07:54:54;;;;;;;7.03;1.45;;;;;;;;;;4996833;28;20107;-47
2023/03/03 07:57:22;;;;;;;7.75;1.60;;;;;;;;;;4968690;28;20046;-50
2023/03/03 07:59:51;;;;;;;5.30;1.33;;;;;;;;;;4999243;28;20034;-48
2023/03/03 08:02:29;;;;;;;7.80;1.80;;;;;;;;;;4975796;28;20172;-52
2023/03/03 08:05:02;;;;;;;6.77;1.70;;;;;;;;;;4975387;28;20128;-50
2023/03/03 08:07:32;;;;;;;5.78;2.03;;;;;;;;;;4994203;28;20128;-47
2023/03/03 08:10:00;;;;;;;6.65;1.75;;;;;;;;;;4973563;28;20069;-49
2023/03/03 08:12:33;;;;;;;5.30;1.70;;;;;;;;;;4996125;28;20148;-54
2023/03/03 08:15:11;;;;;;;6.15;1.50;;;;;;;;;;4974159;28;20034;-50
2023/03/03 08:17:40;;;;;;;7.00;1.83;;;;;;;;;;4993750;28;20048;-49
2023/03/03 08:20:31;;;;;;;5.35;1.38;;;;;;;;;;4978206;28;20530;-46
2023/03/03 08:22:58;;;;;;;5.00;1.23;;;;;;;;;;4983409;28;20061;-48
2023/03/03 08:25:26;;;;;;;6.35;1.42;;;;;;;;;;4960994;28;20049;-50
2023/03/03 08:27:54;;;;;;;6.60;1.77;;;;;;;;;;4980660;28;20271;-52
2023/03/03 08:30:31;;;;;;;7.30;2.13;;;;;;;;;;4990346;28;20046;-53
2023/03/03 08:32:59;;;;;;;5.82;1.70;;;;;;;;;;4984328;28;20112;-52
2023/03/03 08:35:32;;;;;;;7.97;1.35;;;;;;;;;;4977405;28;20691;-48
2023/03/03 08:38:00;;;;;;;5.90;1.73;;;;;;;;;;4992220;28;20070;-48
2023/03/03 08:40:28;;;;;;;7.72;1.60;;;;;;;;;;4977571;28;20578;-48
2023/03/03 08:42:56;;;;;;;5.07;1.40;;;;;;;;;;4991676;28;20050;-48
2023/03/03 08:45:24;;;;;;;6.15;1.42;;;;;;;;;;4989670;28;20466;-48
2023/03/03 08:50:35;;;;;;;5.72;1.42;;;;;;;;;;4970418;28;20057;-48
2023/03/03 08:53:03;;;;;;;5.85;1.40;;;;;;;;;;4984013;28;20045;-48
2023/03/03 08:55:30;;;;;;;8.80;1.60;;;;;;;;;;4977627;28;20144;-50
2023/03/03 08:57:58;;;;;;;7.78;1.70;;;;;;;;;;4975103;28;21029;-50
2023/03/03 09:00:26;;;;;;;7.20;2.28;;;;;;;;;;4988386;28;20129;-48
2023/03/03 09:02:54;;;;;;;10.32;2.75;;;;;;;;;;4973826;28;21315;-48
2023/03/03 09:05:22;;;;;;;9.80;3.00;;;;;;;;;;4983141;28;20064;-49
2023/03/03 09:07:51;;;;;;;8.80;2.87;;;;;;;;;;4972667;28;20040;-47
2023/03/03 09:10:21;;;;;;;7.95;2.92;;;;;;;;;;4985879;28;20065;-47
2023/03/03 09:12:51;;;;;;;8.27;2.33;;;;;;;;;;4985551;28;20103;-51
2023/03/03 09:15:21;;;;;;;11.35;2.90;;;;;;;;;;4986138;28;20034;-48
2023/03/03 09:17:50;;;;;;;8.73;2.30;;;;;;;;;;4977355;28;20093;-50
2023/03/03 09:20:36;;;;;;;11.06;2.61;;;;;;;;;;4918757;28;10001130;-50
2023/03/03 09:23:23;;;;;;;8.75;2.90;;;;;;;;;;4992702;28;20247;-48
2023/03/03 09:25:52;;;;;;;9.33;2.70;;;;;;;;;;4970961;28;20112;-52
2023/03/03 09:28:23;;;;;;;9.68;3.33;;;;;;;;;;4981842;28;20151;-52
2023/03/03 09:30:52;;;;;;;12.41;3.16;;;;;;;;;;4632877;28;10001188;-52
2023/03/03 09:33:25;;;;;;;11.80;3.70;;;;;;;;;;4929178;28;20046;-47
2023/03/03 09:35:54;;;;;;;10.23;3.50;;;;;;;;;;4978433;28;20041;-50
2023/03/03 09:38:27;;;;;;;11.67;3.67;;;;;;;;;;4967000;28;20281;-50
2023/03/03 09:41:18;;;;;;;10.73;2.80;;;;;;;;;;4987232;28;20120;-50
2023/03/03 09:43:56;;;;;;;9.20;2.78;;;;;;;;;;4945985;28;20089;-51
2023/03/03 09:46:30;;;;;;;10.38;2.88;;;;;;;;;;4973476;28;20046;-52
2023/03/03 09:49:06;;;;;;;10.10;2.72;;;;;;;;;;4982603;28;20076;-49
2023/03/03 09:51:39;;;;;;;10.87;2.80;;;;;;;;;;4982107;28;20076;-52
2023/03/03 09:54:22;;;;;;;7.68;2.13;;;;;;;;;;4982360;28;20121;-50
2023/03/03 09:56:56;;;;;;;7.15;2.15;;;;;;;;;;4972421;28;20042;-53
2023/03/03 09:59:30;;;;;;;8.02;2.33;;;;;;;;;;4981056;28;20145;-48
2023/03/03 10:02:14;;;;;;;6.43;1.92;;;;;;;;;;4979443;28;20116;-51
2023/03/03 10:04:52;;;;;;;5.70;1.47;;;;;;;;;;4969329;28;20116;-51
2023/03/03 10:07:26;;;;;;;7.43;1.80;;;;;;;;;;4968348;28;20922;-50
2023/03/03 10:10:03;;;;;;;6.07;1.50;;;;;;;;;;4989023;28;20053;-48
2023/03/03 10:12:33;;;;;;;8.90;2.33;;;;;;;;;;4971333;28;21402;-48
2023/03/03 10:15:12;;;;;;;7.35;2.30;;;;;;;;;;4973405;28;20128;-49
2023/03/03 10:17:48;;;;;;;6.57;1.33;;;;;;;;;;4982020;28;20130;-50
2023/03/03 10:20:25;;;;;;;6.65;1.58;;;;;;;;;;4968423;28;20450;-53
2023/03/03 10:22:55;;;;;;;6.38;1.20;;;;;;;;;;4972875;28;20055;-49
2023/03/03 10:25:29;;;;;;;8.80;1.83;;;;;;;;;;4971552;28;20053;-53
2023/03/03 10:28:04;;;;;;;5.00;1.60;;;;;;;;;;4980487;28;20030;-51
2023/03/03 10:30:41;;;;;;;6.67;1.60;;;;;;;;;;4972882;28;20084;-53
2023/03/03 10:33:33;;;;;;;6.07;1.20;;;;;;;;;;4966257;28;20116;-50
2023/03/03 10:36:20;;;;;;;6.55;1.00;;;;;;;;;;4972173;28;20045;-47
2023/03/03 10:38:55;;;;;;;4.43;1.20;;;;;;;;;;4972198;28;20104;-50
2023/03/03 10:41:30;;;;;;;6.75;1.20;;;;;;;;;;4970039;28;20049;-50
2023/03/03 10:44:08;;;;;;;5.63;1.27;;;;;;;;;;4966118;28;20120;-50
2023/03/03 10:46:46;;;;;;;6.18;1.00;;;;;;;;;;4981728;28;20124;-49
2023/03/03 10:49:17;;;;;;;5.30;1.45;;;;;;;;;;4975511;28;20124;-48
2023/03/03 10:51:53;;;;;;;4.43;1.00;;;;;;;;;;4985789;28;20033;-53
2023/03/03 10:54:31;;;;;;;7.78;1.40;;;;;;;;;;4977465;28;20051;-50
2023/03/03 10:57:02;;;;;;;5.30;1.37;;;;;;;;;;4978532;28;20042;-50
2023/03/03 10:59:35;;;;;;;5.57;1.00;;;;;;;;;;4975336;28;20143;-47
2023/03/03 11:02:10;;;;;;;5.82;1.20;;;;;;;;;;4974357;28;20042;-50
2023/03/03 11:04:55;;;;;;;4.68;1.02;;;;;;;;;;4966259;28;20049;-47
2023/03/03 11:07:26;;;;;;;5.90;1.10;;;;;;;;;;4977342;28;21615;-50
2023/03/03 11:10:18;;;;;;;5.90;1.10;;;;;;;;;;4969623;28;20049;-51
2023/03/03 11:12:52;;;;;;;5.45;1.15;;;;;;;;;;4966132;28;20061;-48
2023/03/03 11:15:40;;;;;;;7.15;1.25;;;;;;;;;;4986446;28;20038;-50
2023/03/03 11:18:14;;;;;;;5.30;1.25;;;;;;;;;;4962219;28;20410;-50
2023/03/03 11:20:46;;;;;;;7.45;1.65;;;;;;;;;;4987476;28;20045;-51
2023/03/03 11:23:21;;;;;;;6.43;1.37;;;;;;;;;;4971452;28;20389;-53
2023/03/03 11:25:53;;;;;;;7.53;1.40;;;;;;;;;;4971268;28;20072;-51
2023/03/03 11:28:26;;;;;;;5.97;1.23;;;;;;;;;;4989698;28;20049;-51
2023/03/03 11:31:10;;;;;;;6.20;1.40;;;;;;;;;;4985761;28;20141;-50
2023/03/03 11:33:44;;;;;;;4.83;0.90;;;;;;;;;;4290984;28;10000812;-47
2023/03/03 11:36:17;;;;;;;4.77;1.00;;;;;;;;;;5000068;28;20808;-50
2023/03/03 11:38:51;;;;;;;4.75;0.95;;;;;;;;;;4969754;28;20126;-48
2023/03/03 11:41:23;;;;;;;6.00;1.25;;;;;;;;;;4950599;28;20045;-49
2023/03/03 11:43:52;;;;;;;4.68;1.00;;;;;;;;;;4970151;28;20064;-50
2023/03/03 11:46:22;;;;;;;6.07;1.10;;;;;;;;;;4983441;28;20041;-52
2023/03/03 11:48:54;;;;;;;6.23;0.93;;;;;;;;;;4971265;28;20045;-48
2023/03/03 11:51:28;;;;;;;6.72;0.90;;;;;;;;;;4991165;28;20045;-47
2023/03/03 11:53:59;;;;;;;6.97;0.90;;;;;;;;;;4972119;28;20115;-52
2023/03/03 11:56:39;;;;;;;4.35;1.10;;;;;;;;;;4971787;28;20299;-52
2023/03/03 11:59:18;;;;;;;3.95;0.60;;;;;;;;;;4990126;28;20094;-50
2023/03/03 12:01:49;;;;;;;4.37;1.00;;;;;;;;;;4969978;28;20038;-51
2023/03/03 12:04:22;;;;;;;5.10;0.90;;;;;;;;;;4967892;28;20702;-52
2023/03/03 12:07:01;;;;;;;7.28;1.48;;;;;;;;;;4988108;28;20083;-49
2023/03/03 12:09:48;;;;;;;4.70;1.17;;;;;;;;;;4973703;28;20781;-48
2023/03/03 12:12:20;;;;;;;4.43;0.90;;;;;;;;;;4976971;28;20200;-49
2023/03/03 12:14:56;;;;;;;5.43;0.90;;;;;;;;;;4979419;28;20103;-50
2023/03/03 12:17:37;;;;;;;5.82;1.08;;;;;;;;;;4970993;28;20395;-52
2023/03/03 12:20:11;;;;;;;4.93;0.98;;;;;;;;;;4991515;28;20530;-52
2023/03/03 12:22:41;;;;;;;4.55;0.90;;;;;;;;;;4968498;28;20113;-49
2023/03/03 12:25:18;;;;;;;4.70;0.50;;;;;;;;;;4984456;28;20101;-52
2023/03/03 12:27:50;;;;;;;6.53;0.77;;;;;;;;;;4979376;28;20161;-50
2023/03/03 12:30:26;;;;;;;3.83;0.70;;;;;;;;;;4981758;28;20128;-51
2023/03/03 12:33:02;;;;;;;5.78;1.10;;;;;;;;;;4981769;28;20049;-52
2023/03/03 12:35:34;;;;;;;4.35;0.82;;;;;;;;;;4961719;28;20900;-49
2023/03/03 12:38:06;;;;;;;5.57;0.70;;;;;;;;;;4988860;28;20072;-50
2023/03/03 12:40:34;;;;;;;4.47;0.73;;;;;;;;;;4965640;28;20041;-49
2023/03/03 12:43:17;;;;;;;5.45;1.20;;;;;;;;;;4971517;28;20411;-53
2023/03/03 12:45:52;;;;;;;5.53;1.17;;;;;;;;;;4995328;28;20075;-49
2023/03/03 12:48:25;;;;;;;4.32;0.80;;;;;;;;;;4977511;28;20076;-49
2023/03/03 12:51:00;;;;;;;5.15;1.00;;;;;;;;;;4992009;28;20041;-51
2023/03/03 12:53:33;;;;;;;6.20;1.20;;;;;;;;;;4987938;28;20037;-54
2023/03/03 12:56:05;;;;;;;5.03;1.00;;;;;;;;;;4984292;28;20046;-53
2023/03/03 12:58:37;;;;;;;3.88;0.70;;;;;;;;;;5001896;28;20104;-52
2023/03/03 13:01:17;;;;;;;4.28;0.88;;;;;;;;;;4954439;28;20134;-51
2023/03/03 13:03:49;;;;;;;6.47;0.90;;;;;;;;;;4979660;28;20107;-49
2023/03/03 13:06:29;;;;;;;3.80;0.80;;;;;;;;;;4977265;28;20426;-53
2023/03/03 13:09:04;;;;;;;4.50;0.88;;;;;;;;;;4985380;28;20052;-52
2023/03/03 13:11:41;;;;;;;5.03;1.20;;;;;;;;;;4990148;28;20057;-52
2023/03/03 13:14:17;;;;;;;6.25;1.20;;;;;;;;;;4960484;28;20049;-49
2023/03/03 13:16:49;;;;;;;4.50;0.70;;;;;;;;;;4979072;28;20087;-49
2023/03/03 13:19:19;;;;;;;4.13;0.63;;;;;;;;;;4974143;28;20041;-49
2023/03/03 13:21:50;;;;;;;3.95;0.77;;;;;;;;;;4976207;28;20800;-50
2023/03/03 13:24:21;;;;;;;4.25;0.75;;;;;;;;;;4963652;28;20045;-51
2023/03/03 13:26:53;;;;;;;5.85;0.80;;;;;;;;;;4983497;28;20957;-49
2023/03/03 13:29:25;;;;;;;3.78;0.80;;;;;;;;;;4974164;28;20107;-52
2023/03/03 13:31:55;;;;;;;4.30;0.60;;;;;;;;;;4298699;28;10000655;-50
2023/03/03 13:34:34;;;;;;;3.72;0.70;;;;;;;;;;4971033;28;20260;-51
2023/03/03 13:37:05;;;;;;;5.28;0.90;;;;;;;;;;4969563;28;20502;-52
2023/03/03 13:39:34;;;;;;;4.30;0.88;;;;;;;;;;4987185;28;20053;-48
2023/03/03 13:42:02;;;;;;;3.65;0.68;;;;;;;;;;4961599;28;20552;-49
2023/03/03 13:44:31;;;;;;;3.90;0.80;;;;;;;;;;4627632;28;10000103;-49
2023/03/03 13:47:03;;;;;;;3.20;0.70;;;;;;;;;;4983410;28;20125;-49
2023/03/03 13:49:36;;;;;;;5.25;0.88;;;;;;;;;;4980267;28;20606;-48
2023/03/03 13:52:06;;;;;;;3.88;0.80;;;;;;;;;;4986551;28;20053;-50
2023/03/03 13:54:39;;;;;;;4.43;0.87;;;;;;;;;;4971002;28;20073;-51
2023/03/03 13:57:13;;;;;;;3.85;0.60;;;;;;;;;;4988695;28;20048;-55
2023/03/03 13:59:46;;;;;;;3.40;0.70;;;;;;;;;;4946232;28;20082;-52
2023/03/03 14:02:27;;;;;;;3.92;0.68;;;;;;;;;;4943177;28;20136;-52
2023/03/03 14:04:59;;;;;;;4.75;0.80;;;;;;;;;;4946065;28;20045;-50
2023/03/03 14:07:31;;;;;;;6.30;1.00;;;;;;;;;;4931170;28;20138;-52
2023/03/03 14:10:02;;;;;;;5.20;0.93;;;;;;;;;;4936834;28;20642;-48
2023/03/03 14:12:37;;;;;;;3.38;0.70;;;;;;;;;;4928882;28;20587;-50
2023/03/03 14:15:11;;;;;;;5.57;1.02;;;;;;;;;;4935896;28;20046;-48
2023/03/03 14:17:44;;;;;;;4.38;1.10;;;;;;;;;;4946448;28;20057;-52
2023/03/03 14:20:18;;;;;;;3.87;0.60;;;;;;;;;;4961293;28;20440;-53
2023/03/03 14:22:51;;;;;;;4.97;1.00;;;;;;;;;;4935349;28;20120;-50
2023/03/03 14:25:19;;;;;;;4.28;0.75;;;;;;;;;;4934679;28;20046;-47
2023/03/03 14:27:58;;;;;;;3.90;0.60;;;;;;;;;;4941953;28;20034;-47
2023/03/03 14:30:27;;;;;;;6.53;1.13;;;;;;;;;;4937947;28;20343;-47
2023/03/03 14:33:13;;;;;;;3.43;0.63;;;;;;;;;;4940178;28;20567;-50
2023/03/03 14:35:41;;;;;;;4.60;0.88;;;;;;;;;;4933154;28;20046;-53
2023/03/03 14:38:12;;;;;;;3.50;0.63;;;;;;;;;;4947311;28;20500;-52
2023/03/03 14:40:44;;;;;;;3.40;0.50;;;;;;;;;;4919897;28;20174;-52
2023/03/03 14:43:23;;;;;;;4.30;0.80;;;;;;;;;;4944413;28;20122;-49
2023/03/03 14:45:51;;;;;;;4.13;0.97;;;;;;;;;;4944464;28;20042;-50
2023/03/03 14:48:20;;;;;;;4.30;1.08;;;;;;;;;;4951208;28;20050;-52
2023/03/03 14:50:49;;;;;;;4.68;0.57;;;;;;;;;;4937407;28;20042;-51
2023/03/03 14:53:23;;;;;;;3.88;0.70;;;;;;;;;;4937486;28;20117;-52
2023/03/03 14:55:52;;;;;;;4.00;1.25;;;;;;;;;;4904570;28;20054;-50
2023/03/03 14:58:27;;;;;;;4.30;1.00;;;;;;;;;;4959586;28;20839;-53
2023/03/03 15:01:11;;;;;;;4.10;0.85;;;;;;;;;;4979526;28;20466;-48
2023/03/03 15:03:44;;;;;;;4.50;0.60;;;;;;;;;;4961840;28;20061;-51
2023/03/03 15:06:12;;;;;;;6.45;1.05;;;;;;;;;;4977163;28;20128;-48
2023/03/03 15:08:42;;;;;;;6.35;1.50;;;;;;;;;;4988367;28;20544;-49